Time;durP1;ratioP1;P1;durP2;ratioP2;P2;SDS_P1;SDS_P2;PMS_P1;PMS_P2;Temp;Humidity;BMP_temperature;BMP_pressure;BME280_temperature;BME280_humidity;BME280_pressure;Samples;Min_cycle;Max_cycle;Signal;HPM_P1;HPM_P2
2021/03/21 00:00:36;;;;;;;11.48;7.85;;;;;;;3.85;47.18;101034.13;1692492;83;21581;-55
2021/03/21 00:03:04;;;;;;;11.55;6.70;;;;;;;3.78;47.17;101029.60;1701147;83;21152;-55
2021/03/21 00:05:32;;;;;;;14.35;7.92;;;;;;;3.67;47.25;101018.48;1706027;84;21611;-66
2021/03/21 00:08:09;;;;;;;10.98;7.40;;;;;;;3.58;47.12;101023.44;1705117;83;21176;-54
2021/03/21 00:10:36;;;;;;;13.43;8.23;;;;;;;3.50;47.38;101019.77;1711812;84;21349;-55
2021/03/21 00:13:04;;;;;;;12.68;7.85;;;;;;;3.44;47.35;101026.11;1712515;82;21175;-55
2021/03/21 00:15:32;;;;;;;13.90;8.30;;;;;;;3.40;47.57;101019.92;1756469;81;21150;-54
2021/03/21 00:18:00;;;;;;;16.12;9.58;;;;;;;3.40;47.64;101026.02;1733328;80;21119;-54
2021/03/21 00:20:32;;;;;;;12.58;8.10;;;;;;;3.44;47.79;101015.70;1691247;85;21311;-66
2021/03/21 00:22:59;;;;;;;13.05;8.65;;;;;;;3.47;47.79;101014.05;1726106;82;21304;-66
2021/03/21 00:25:29;;;;;;;14.30;8.55;;;;;;;3.51;47.81;101014.59;1734270;82;21139;-66
2021/03/21 00:27:57;;;;;;;12.80;7.85;;;;;;;3.50;47.87;101014.56;1756297;80;21324;-54
2021/03/21 00:30:35;;;;;;;15.58;8.88;;;;;;;3.49;47.87;101012.37;1756353;82;21143;-66
2021/03/21 00:33:04;;;;;;;11.40;7.60;;;;;;;3.50;47.85;101015.43;1734049;82;21289;-54
2021/03/21 00:35:31;;;;;;;13.95;9.00;;;;;;;3.47;47.58;101012.74;1732621;82;21268;-55
2021/03/21 00:38:03;;;;;;;12.95;7.92;;;;;;;3.33;47.59;101011.48;1726421;82;21182;-54
2021/03/21 00:40:31;;;;;;;14.10;9.28;;;;;;;3.23;47.71;101014.25;1739557;82;21130;-66
2021/03/21 00:42:58;;;;;;;13.03;8.30;;;;;;;3.21;47.62;101008.12;1756261;80;21147;-55
2021/03/21 00:45:27;;;;;;;15.32;9.88;;;;;;;3.04;47.83;101012.85;1733459;82;21154;-66
2021/03/21 00:47:55;;;;;;;11.95;7.90;;;;;;;2.84;48.18;101010.56;1726074;82;21155;-54
2021/03/21 00:50:31;;;;;;;15.10;9.18;;;;;;;2.75;48.49;101008.98;1741249;82;21599;-66
2021/03/21 00:53:00;;;;;;;13.13;8.23;;;;;;;2.70;48.64;101008.83;1735545;81;21563;-66
2021/03/21 00:55:27;;;;;;;13.88;8.45;;;;;;;2.61;48.68;101010.75;1756108;82;21139;-55
2021/03/21 00:57:55;;;;;;;14.58;8.63;;;;;;;2.51;48.88;101005.69;1756109;80;21176;-66
2021/03/21 01:00:30;;;;;;;12.78;8.40;;;;;;;2.45;49.03;101008.09;1744970;82;21555;-55
2021/03/21 01:02:58;;;;;;;14.50;8.93;;;;;;;2.48;49.07;101006.00;1736421;82;21192;-54
2021/03/21 01:05:31;;;;;;;15.13;8.70;;;;;;;2.44;48.99;101002.44;1718424;83;21187;-55
2021/03/21 01:07:59;;;;;;;13.95;8.25;;;;;;;2.41;49.12;100997.14;1721258;82;21162;-66
2021/03/21 01:10:31;;;;;;;14.78;8.40;;;;;;;2.29;49.41;101001.55;1722490;82;21135;-55
2021/03/21 01:12:59;;;;;;;11.70;7.80;;;;;;;2.39;49.23;100993.61;1743309;81;21179;-54
2021/03/21 01:15:29;;;;;;;11.03;7.50;;;;;;;2.43;49.31;100996.77;1748111;82;21273;-66
2021/03/21 01:17:57;;;;;;;10.90;6.90;;;;;;;2.44;49.33;100997.64;1735247;81;21116;-66
2021/03/21 01:20:27;;;;;;;12.78;8.23;;;;;;;2.41;49.25;101003.63;1673979;83;21095;-67
2021/03/21 01:22:55;;;;;;;;;;;;;;;2.33;49.39;101004.70;1721148;82;21193;-66
2021/03/21 01:25:25;;;;;;;11.40;7.60;;;;;;;2.35;49.56;101000.84;1718471;83;20155;-66
2021/03/21 01:27:55;;;;;;;13.30;8.18;;;;;;;2.40;49.69;100993.20;1719002;82;21603;-66
2021/03/21 01:30:25;;;;;;;15.48;8.60;;;;;;;2.36;49.64;101002.20;1673266;83;21593;-66
2021/03/21 01:32:53;;;;;;;14.25;8.13;;;;;;;2.34;49.83;100994.78;1748467;81;21163;-66
2021/03/21 01:35:22;;;;;;;13.80;8.30;;;;;;;2.37;49.79;101000.47;1747349;82;21143;-66
2021/03/21 01:37:50;;;;;;;12.05;7.95;;;;;;;2.41;49.88;100998.88;1747060;81;21181;-55
2021/03/21 01:40:19;;;;;;;11.75;7.70;;;;;;;2.49;49.87;100993.06;1743716;82;21558;-66
2021/03/21 01:42:47;;;;;;;13.43;8.65;;;;;;;2.50;49.86;100986.14;1748192;81;21619;-53
2021/03/21 01:45:39;;;;;;;12.95;8.20;;;;;;;2.49;49.90;100992.17;1736110;82;21154;-54
2021/03/21 01:48:39;;;;;;;12.10;7.37;;;;;;;2.57;49.80;100987.23;1675998;83;21211;-54
2021/03/21 01:51:12;;;;;;;;;;;;;;;2.56;49.70;100986.77;1750981;81;21590;-54
2021/03/21 01:53:42;;;;;;;13.45;7.33;;;;;;;2.55;49.72;100978.50;1747217;82;20160;-54
2021/03/21 01:56:10;;;;;;;;;;;;;;;2.55;49.74;100983.27;1749115;81;21151;-66
2021/03/21 01:58:39;;;;;;;10.80;6.90;;;;;;;2.53;49.77;100987.13;1745128;82;20430;-55
2021/03/21 02:01:25;;;;;;;11.95;6.97;;;;;;;2.52;49.75;100987.97;1748409;81;21175;-66
2021/03/21 02:03:53;;;;;;;13.70;7.75;;;;;;;2.51;49.76;100982.30;1743870;81;21130;-63
2021/03/21 02:06:42;;;;;;;14.33;8.00;;;;;;;2.48;49.70;100974.41;1682067;83;21569;-66
2021/03/21 02:09:35;;;;;;;11.40;7.12;;;;;;;2.46;49.67;100974.78;1711825;84;21312;-66
2021/03/21 02:12:17;;;;;;;12.30;7.50;;;;;;;2.39;49.40;100974.12;1714253;84;21626;-66
2021/03/21 02:14:55;;;;;;;13.40;8.75;;;;;;;2.28;49.50;100969.00;1713166;83;21124;-66
2021/03/21 02:17:44;;;;;;;12.30;8.20;;;;;;;2.23;49.71;100972.34;1714648;84;21376;-65
2021/03/21 02:20:40;;;;;;;12.65;7.65;;;;;;;2.21;49.90;100975.30;1715450;84;21363;-66
2021/03/21 02:23:25;;;;;;;13.22;7.28;;;;;;;2.23;49.97;100972.34;1714665;82;21230;-55
2021/03/21 02:26:24;;;;;;;11.60;6.92;;;;;;;2.27;50.01;100973.73;1692199;84;21139;-66
2021/03/21 02:29:30;;;;;;;11.73;7.50;;;;;;;2.27;49.96;100975.03;1714541;84;21167;-55
2021/03/21 02:32:11;;;;;;;13.43;7.50;;;;;;;2.25;49.95;100969.80;1714082;82;21240;-55
2021/03/21 02:35:09;;;;;;;12.35;7.90;;;;;;;2.22;49.91;100972.30;1699009;83;21129;-65
2021/03/21 02:38:05;;;;;;;12.63;7.28;;;;;;;2.21;49.93;100970.11;1705288;84;21542;-55
2021/03/21 02:40:48;;;;;;;10.58;6.78;;;;;;;2.19;50.06;100962.72;1711343;84;21175;-55
2021/03/21 02:43:37;;;;;;;11.90;7.00;;;;;;;2.14;49.83;100963.38;1700522;82;21151;-66
2021/03/21 02:46:10;;;;;;;12.05;7.17;;;;;;;2.03;49.94;100970.84;1703797;82;21187;-55
2021/03/21 02:48:50;;;;;;;12.68;8.20;;;;;;;1.92;50.28;100964.02;1713634;84;21195;-55
2021/03/21 02:51:28;;;;;;;11.73;7.62;;;;;;;1.91;50.43;100964.84;1713058;82;21171;-66
2021/03/21 02:54:25;;;;;;;13.70;7.72;;;;;;;1.87;50.52;100969.03;1714762;84;21477;-55
2021/03/21 02:57:00;;;;;;;13.40;7.58;;;;;;;1.85;50.53;100969.83;1714306;83;21352;-54
2021/03/21 03:05:48;;;;;;;12.47;7.85;;;;;;;1.78;50.81;100960.54;1852100;77;22151;-52
2021/03/21 03:08:24;;;;;;;11.20;6.92;;;;;;;1.81;51.05;100966.23;1730431;81;21129;-64
2021/03/21 03:11:17;;;;;;;11.97;7.45;;;;;;;1.85;50.67;100962.04;1728641;82;21135;-64
2021/03/21 03:13:52;;;;;;;11.78;7.03;;;;;;;1.77;50.65;100959.17;1750970;81;21154;-64
2021/03/21 03:20:40;;;;;;;12.73;6.87;;;;;;;1.77;50.92;100953.98;1805724;77;22186;-53
2021/03/21 03:23:46;;;;;;;10.85;6.72;;;;;;;1.81;51.04;100961.47;1716190;83;21557;-64
2021/03/21 03:26:53;;;;;;;12.63;7.87;;;;;;;1.81;51.14;100961.05;1701655;84;21289;-52
2021/03/21 03:29:27;;;;;;;15.53;7.60;;;;;;;1.86;51.11;100958.19;1707876;83;21138;-64
2021/03/21 03:31:57;;;;;;;13.65;8.00;;;;;;;1.89;51.04;100956.13;1679072;84;21213;-64
2021/03/21 03:34:27;;;;;;;15.48;7.90;;;;;;;1.90;51.02;100954.86;1692602;83;21181;-59
2021/03/21 03:36:55;;;;;;;14.18;8.30;;;;;;;1.93;50.83;100952.80;1726646;81;21129;-53
2021/03/21 03:39:24;;;;;;;14.83;8.98;;;;;;;1.93;50.73;100955.39;1686372;85;21194;-64
2021/03/21 03:42:00;;;;;;;12.78;8.03;;;;;;;1.90;50.77;100957.45;1700812;83;21197;-53
2021/03/21 03:45:06;;;;;;;12.53;7.35;;;;;;;1.88;50.65;100955.22;1701454;84;21324;-52
2021/03/21 03:47:45;;;;;;;13.90;7.58;;;;;;;1.87;50.69;100948.27;1709867;82;21187;-65
2021/03/21 03:50:22;;;;;;;11.90;6.90;;;;;;;1.84;50.66;100950.77;1682381;84;21139;-53
2021/03/21 03:53:16;;;;;;;12.95;7.55;;;;;;;1.83;50.69;100946.40;1688685;84;21167;-54
2021/03/21 03:56:13;;;;;;;12.20;7.97;;;;;;;1.83;50.54;100944.23;1719708;83;21134;-66
2021/03/21 03:59:04;;;;;;;11.85;7.65;;;;;;;1.79;50.60;100941.94;1686029;85;21349;-54
2021/03/21 04:01:56;;;;;;;13.13;7.90;;;;;;;1.78;50.69;100941.47;1698556;83;21575;-52
2021/03/21 04:04:50;;;;;;;13.03;8.23;;;;;;;1.83;50.95;100946.83;1723252;82;21143;-63
2021/03/21 04:07:42;;;;;;;13.43;7.75;;;;;;;1.89;51.14;100945.30;1716247;83;21211;-64
2021/03/21 04:10:23;;;;;;;12.88;7.42;;;;;;;1.92;50.87;100944.54;1665360;83;21635;-64
2021/03/21 04:13:23;;;;;;;11.65;7.03;;;;;;;1.92;50.63;100953.62;1720111;83;21174;-64
2021/03/21 04:15:53;;;;;;;14.78;7.03;;;;;;;0.93;52.50;100953.72;1671436;85;21169;-52
2021/03/21 04:18:41;;;;;;;12.10;7.08;;;;;;;0.72;53.10;100957.30;1684975;85;21175;-63
2021/03/21 04:21:20;;;;;;;12.63;7.25;;;;;;;0.64;53.27;100963.90;1703180;84;21570;-51
2021/03/21 04:23:59;;;;;;;13.15;7.12;;;;;;;0.60;53.61;100954.24;1712281;84;21310;-52
2021/03/21 04:26:33;;;;;;;22.10;7.65;;;;;;;0.59;54.02;100960.25;1748788;81;21136;-63
2021/03/21 04:29:14;;;;;;;11.70;6.67;;;;;;;0.67;54.30;100967.00;1827912;77;22111;-52
2021/03/21 04:31:42;;;;;;;11.48;6.60;;;;;;;0.68;54.33;100963.20;1780454;80;21111;-64
2021/03/21 04:34:10;;;;;;;14.45;7.70;;;;;;;0.72;54.33;100962.87;1718761;81;21142;-53
2021/03/21 04:36:40;;;;;;;15.43;7.50;;;;;;;0.78;54.55;100967.00;1718911;81;21139;-53
2021/03/21 04:39:15;;;;;;;13.53;7.67;;;;;;;0.86;54.71;100969.47;1779408;80;21150;-54
2021/03/21 04:41:52;;;;;;;13.55;7.22;;;;;;;0.97;54.82;100971.15;1778965;80;21338;-53
2021/03/21 04:44:26;;;;;;;12.45;7.35;;;;;;;1.06;54.87;100973.22;1761887;81;21123;-54
2021/03/21 04:46:58;;;;;;;13.70;7.70;;;;;;;1.15;54.92;100973.52;1768332;80;21601;-64
2021/03/21 04:49:25;;;;;;;15.95;7.40;;;;;;;1.24;54.79;100975.98;1791382;80;21151;-64
2021/03/21 04:52:07;;;;;;;15.25;8.00;;;;;;;1.30;54.90;100969.72;1787922;80;21135;-64
2021/03/21 04:54:36;;;;;;;23.80;7.87;;;;;;;1.39;55.01;100975.23;1793384;80;21132;-63
2021/03/21 04:57:31;;;;;;;13.65;7.58;;;;;;;1.51;55.25;100971.30;1768666;80;21288;-64
2021/03/21 04:59:58;;;;;;;12.25;6.65;;;;;;;1.60;55.27;100972.48;1768352;80;21511;-63
2021/03/21 05:02:28;;;;;;;15.75;9.78;;;;;;;1.65;54.86;100971.77;1770428;80;21611;-64
2021/03/21 05:05:04;;;;;;;16.50;9.10;;;;;;;1.67;54.92;100970.97;1774999;80;21135;-64
2021/03/21 05:07:58;;;;;;;13.83;7.90;;;;;;;1.74;55.13;100968.19;1779126;80;21567;-65
2021/03/21 05:10:33;;;;;;;15.70;8.30;;;;;;;1.83;55.21;100964.57;1778828;80;21522;-54
2021/03/21 05:13:10;;;;;;;12.70;7.30;;;;;;;1.90;55.06;100969.14;1778065;80;21135;-64
2021/03/21 05:16:03;;;;;;;13.32;7.60;;;;;;;2.00;55.31;100970.74;1774481;80;21115;-64
2021/03/21 05:18:58;;;;;;;14.60;7.40;;;;;;;2.07;55.42;100955.83;1779236;80;21162;-65
2021/03/21 05:21:43;;;;;;;15.20;7.53;;;;;;;2.19;55.56;100954.92;1793333;80;21155;-63
2021/03/21 05:24:35;;;;;;;14.98;7.35;;;;;;;2.34;55.60;100952.31;1771206;80;21138;-63
2021/03/21 05:27:13;;;;;;;14.20;8.18;;;;;;;2.48;55.67;100954.02;1768039;80;21206;-54
2021/03/21 05:30:13;;;;;;;11.95;7.55;;;;;;;2.63;55.57;100947.12;1748888;82;21151;-65
2021/03/21 05:32:43;;;;;;;13.10;8.28;;;;;;;2.77;55.55;100947.09;1757005;81;21141;-53
2021/03/21 05:35:19;;;;;;;14.73;8.90;;;;;;;2.96;55.63;100949.79;1751132;81;21140;-64
2021/03/21 05:38:18;;;;;;;13.60;8.00;;;;;;;3.10;55.52;100952.77;1748371;81;21127;-54
2021/03/21 05:41:10;;;;;;;13.50;8.20;;;;;;;4.23;53.50;100954.73;1748017;81;21293;-54
2021/03/21 05:44:25;;;;;;;15.30;8.65;;;;;;;4.56;52.96;100949.80;1714328;82;21134;-64
2021/03/21 05:47:22;;;;;;;13.03;8.00;;;;;;;4.80;52.32;100943.77;1748057;82;21296;-64
2021/03/21 05:50:41;;;;;;;12.68;7.12;;;;;;;5.04;52.21;100942.07;1748142;81;21492;-54
2021/03/21 05:53:27;;;;;;;15.60;7.97;;;;;;;5.22;51.82;100942.84;1748654;81;21144;-65
2021/03/21 05:56:15;;;;;;;16.07;8.75;;;;;;;5.46;51.52;100940.25;1750971;81;21571;-55
2021/03/21 05:59:10;;;;;;;13.38;7.60;;;;;;;5.63;51.16;100937.48;1748141;81;21306;-65
2021/03/21 06:02:06;;;;;;;11.97;6.80;;;;;;;5.84;50.97;100941.31;1748212;82;21308;-54
2021/03/21 06:04:49;;;;;;;13.72;6.67;;;;;;;5.98;50.88;100930.18;1754504;81;21143;-64
2021/03/21 06:07:51;;;;;;;12.47;7.70;;;;;;;6.09;49.90;100931.27;1747933;81;21313;-55
2021/03/21 06:10:50;;;;;;;12.33;7.65;;;;;;;6.17;50.28;100928.34;1748125;82;21123;-54
2021/03/21 06:13:48;;;;;;;12.13;7.75;;;;;;;6.30;50.00;100928.08;1750107;81;21112;-65
2021/03/21 06:17:03;;;;;;;11.80;6.65;;;;;;;6.43;50.23;100921.73;1748477;81;21143;-64
2021/03/21 06:20:05;;;;;;;11.63;6.97;;;;;;;6.57;49.38;100922.80;1748286;82;21563;-64
2021/03/21 06:22:58;;;;;;;9.53;6.00;;;;;;;6.75;49.70;100918.63;1755274;80;21115;-55
2021/03/21 06:26:00;;;;;;;12.10;6.20;;;;;;;6.87;48.67;100913.55;1784414;80;21617;-54
2021/03/21 06:29:03;;;;;;;13.72;7.17;;;;;;;7.02;48.53;100911.53;1787178;80;21126;-65
2021/03/21 06:32:03;;;;;;;12.58;7.30;;;;;;;7.25;49.67;100917.46;1767295;80;21147;-65
2021/03/21 06:35:12;;;;;;;13.70;7.33;;;;;;;7.43;48.74;100911.07;1745746;80;21260;-65
2021/03/21 06:38:05;;;;;;;12.28;7.17;;;;;;;7.59;48.28;100916.45;1790110;80;21143;-65
2021/03/21 06:41:04;;;;;;;8.90;5.62;;;;;;;7.78;48.58;100913.97;1771986;80;21535;-55
2021/03/21 06:43:55;;;;;;;8.98;5.50;;;;;;;8.02;48.28;100917.20;1756082;81;21179;-54
2021/03/21 06:47:08;;;;;;;10.75;6.42;;;;;;;8.31;47.24;100921.33;1783651;80;21835;-65
2021/03/21 06:49:57;;;;;;;9.45;6.05;;;;;;;8.48;47.19;100921.86;1779207;80;21249;-55
2021/03/21 06:52:39;;;;;;;8.73;5.50;;;;;;;8.62;47.17;100918.88;1787227;80;21670;-56
2021/03/21 06:55:34;;;;;;;9.05;5.75;;;;;;;8.88;46.63;100925.11;1732645;81;21159;-65
2021/03/21 06:58:33;;;;;;;8.85;5.30;;;;;;;9.13;46.51;100922.12;1762989;80;21177;-55
2021/03/21 07:01:30;;;;;;;7.95;5.08;;;;;;;9.32;46.12;100926.97;1756858;80;21133;-55
2021/03/21 07:04:40;;;;;;;8.35;4.90;;;;;;;9.53;46.11;100922.63;1771444;80;21115;-55
2021/03/21 07:07:36;;;;;;;7.33;4.92;;;;;;;9.77;44.46;100911.25;1768014;80;21174;-65
2021/03/21 07:11:00;;;;;;;7.87;5.40;;;;;;;10.06;43.60;100916.05;1769288;80;21590;-56
2021/03/21 07:13:58;;;;;;;7.42;4.65;;;;;;;10.23;44.28;100919.95;1770151;80;21582;-55
2021/03/21 07:16:58;;;;;;;11.00;5.42;;;;;;;10.45;42.48;100918.59;1746217;80;21146;-64
2021/03/21 07:20:22;;;;;;;8.45;5.10;;;;;;;10.64;43.72;100917.66;1703800;83;21177;-64
2021/03/21 07:23:21;;;;;;;6.58;4.72;;;;;;;10.86;40.85;100914.92;1786084;80;21123;-56
2021/03/21 07:26:14;;;;;;;7.25;4.85;;;;;;;11.03;42.24;100899.05;1768936;79;21087;-56
2021/03/21 07:28:59;;;;;;;7.87;5.42;;;;;;;11.25;39.42;100893.20;1763495;80;21103;-56
2021/03/21 07:31:51;;;;;;;6.87;4.70;;;;;;;11.45;40.01;100893.06;1777894;80;21168;-56
2021/03/21 07:34:50;;;;;;;7.30;4.90;;;;;;;11.50;38.90;100886.42;1710886;83;21316;-65
2021/03/21 07:37:41;;;;;;;9.33;4.65;;;;;;;11.58;38.45;100883.71;1712160;82;21163;-65
2021/03/21 07:40:34;;;;;;;7.75;4.83;;;;;;;11.79;38.74;100868.60;1828598;77;22197;-62
2021/03/21 07:43:51;;;;;;;9.30;4.58;;;;;;;11.93;36.74;100879.88;1780316;78;21734;-61
2021/03/21 07:46:37;;;;;;;7.47;4.92;;;;;;;11.96;37.66;100873.71;1771728;80;21131;-65
2021/03/21 07:49:40;;;;;;;7.87;4.75;;;;;;;12.00;36.56;100863.59;1775099;80;21146;-56
2021/03/21 07:52:19;;;;;;;8.20;5.10;;;;;;;12.11;36.46;100859.08;1778641;80;21166;-64
2021/03/21 07:55:08;;;;;;;6.83;4.53;;;;;;;12.22;35.91;100860.27;1736796;81;21165;-56
2021/03/21 07:57:44;;;;;;;7.58;4.87;;;;;;;12.39;35.87;100849.94;1735964;81;21111;-57
2021/03/21 08:00:14;;;;;;;7.35;5.30;;;;;;;12.60;35.58;100853.64;1734371;81;21166;-56
2021/03/21 08:02:44;;;;;;;7.30;5.20;;;;;;;12.74;35.97;100860.52;1738087;81;21178;-65
2021/03/21 08:05:17;;;;;;;6.12;4.33;;;;;;;12.72;34.14;100862.30;1733644;81;21153;-56
2021/03/21 08:07:48;;;;;;;7.17;4.50;;;;;;;12.80;35.32;100861.77;1728428;83;21403;-65
2021/03/21 08:10:27;;;;;;;7.65;5.00;;;;;;;12.98;35.25;100855.77;1718729;83;21534;-64
2021/03/21 08:13:06;;;;;;;6.67;4.60;;;;;;;13.37;36.41;100853.40;1756798;81;21172;-55
2021/03/21 08:15:36;;;;;;;7.07;4.40;;;;;;;13.87;35.22;100852.15;1695311;83;21182;-56
2021/03/21 08:18:17;;;;;;;6.57;4.90;;;;;;;14.10;33.50;100845.09;1721471;83;21224;-65
2021/03/21 08:20:56;;;;;;;7.28;4.67;;;;;;;14.00;32.17;100847.49;1726460;83;21151;-56
2021/03/21 08:23:28;;;;;;;6.00;4.55;;;;;;;13.66;31.83;100845.48;1726026;83;21170;-55
2021/03/21 08:26:02;;;;;;;7.20;4.37;;;;;;;13.30;32.49;100846.46;1702688;84;21091;-64
2021/03/21 08:28:38;;;;;;;7.28;4.87;;;;;;;13.42;34.47;100842.34;1725736;81;21166;-56
2021/03/21 08:31:11;;;;;;;6.53;4.47;;;;;;;13.82;32.67;100837.66;1731025;83;21257;-55
2021/03/21 08:33:41;;;;;;;8.05;4.78;;;;;;;13.94;33.74;100827.30;1761488;81;21182;-55
2021/03/21 08:36:19;;;;;;;8.10;4.62;;;;;;;14.16;31.52;100831.30;1732015;81;21538;-54
2021/03/21 08:39:32;;;;;;;9.48;4.75;;;;;;;14.01;30.69;100816.16;1747982;81;21765;-65
2021/03/21 08:42:00;;;;;;;5.85;4.30;;;;;;;13.76;30.99;100818.40;1725716;83;21175;-56
2021/03/21 08:44:44;;;;;;;7.47;4.72;;;;;;;13.47;31.40;100815.80;1709470;84;21199;-56
2021/03/21 08:47:24;;;;;;;8.50;5.22;;;;;;;13.46;31.83;100814.95;1725871;83;21174;-64
2021/03/21 08:49:55;;;;;;;6.85;4.90;;;;;;;13.43;32.08;100808.39;1738640;82;21309;-64
2021/03/21 08:52:42;;;;;;;7.42;4.95;;;;;;;13.47;30.93;100808.76;1738251;82;21183;-65
2021/03/21 08:55:28;;;;;;;6.22;4.03;;;;;;;13.42;29.81;100806.64;1685780;82;21191;-65
2021/03/21 08:57:55;;;;;;;6.15;4.05;;;;;;;13.26;30.33;100806.44;1710384;83;21158;-56
2021/03/21 09:00:34;;;;;;;5.33;3.65;;;;;;;12.99;29.58;100802.03;1744243;82;21095;-57
2021/03/21 09:03:21;;;;;;;7.17;3.62;;;;;;;12.73;29.23;100798.88;1746188;82;21176;-56
2021/03/21 09:05:54;;;;;;;6.92;4.55;;;;;;;12.89;31.26;100799.52;1753691;81;21146;-56
2021/03/21 09:08:27;;;;;;;6.22;4.05;;;;;;;13.14;30.06;100800.47;1751072;82;21210;-64
2021/03/21 09:11:05;;;;;;;5.60;3.90;;;;;;;12.99;30.29;100804.67;1754667;82;21562;-56
2021/03/21 09:13:35;;;;;;;7.80;4.67;;;;;;;12.98;29.37;100799.84;1754736;82;21142;-56
2021/03/21 09:16:10;;;;;;;5.10;3.72;;;;;;;13.06;30.30;100802.36;1735979;82;21175;-64
2021/03/21 09:18:43;;;;;;;5.08;3.60;;;;;;;13.04;28.60;100800.19;1834740;77;22124;-63
2021/03/21 09:21:22;;;;;;;5.70;3.85;;;;;;;12.93;28.74;100803.86;1792977;79;21150;-55
2021/03/21 09:24:08;;;;;;;5.65;4.22;;;;;;;12.98;28.31;100800.28;1760843;81;21262;-64
2021/03/21 09:26:44;;;;;;;7.75;4.70;;;;;;;12.87;27.96;100801.31;1761755;81;21189;-55
2021/03/21 09:29:29;;;;;;;5.97;4.33;;;;;;;12.81;29.38;100798.76;1762034;81;21148;-65
2021/03/21 09:32:05;;;;;;;7.15;5.08;;;;;;;12.73;29.54;100794.92;1718361;81;21162;-57
2021/03/21 09:35:05;;;;;;;36.08;26.20;;;;;;;12.64;30.05;100793.30;1753249;81;21715;-57
2021/03/21 09:37:34;;;;;;;8.85;5.85;;;;;;;12.58;30.08;100783.27;1761752;81;21303;-55
2021/03/21 09:40:29;;;;;;;74.10;62.90;;;;;;;12.46;29.03;100783.86;1760249;81;21138;-56
2021/03/21 09:42:59;;;;;;;16.10;13.72;;;;;;;12.66;30.87;100772.13;1759692;81;21103;-56
2021/03/21 09:45:26;;;;;;;7.30;5.15;;;;;;;13.03;30.62;100765.41;1762123;81;21586;-64
2021/03/21 09:47:58;;;;;;;6.95;4.95;;;;;;;13.09;27.93;100762.21;1762037;81;21293;-64
2021/03/21 09:50:54;;;;;;;5.80;4.05;;;;;;;13.02;28.97;100763.67;1742338;81;21158;-56
2021/03/21 09:54:07;;;;;;;5.97;4.25;;;;;;;13.04;28.57;100753.95;1761766;81;21167;-64
2021/03/21 09:56:52;;;;;;;6.90;4.25;;;;;;;13.11;28.57;100754.70;1731730;83;21732;-63
2021/03/21 09:59:56;;;;;;;5.80;4.30;;;;;;;13.46;28.17;100742.70;1758225;81;21110;-57
2021/03/21 10:02:51;;;;;;;5.17;3.58;;;;;;;13.63;28.27;100752.48;1731801;82;21535;-65
2021/03/21 10:05:29;;;;;;;5.28;3.62;;;;;;;13.67;27.88;100748.89;1721297;81;21224;-57
2021/03/21 10:08:22;;;;;;;6.03;4.03;;;;;;;13.54;27.50;100738.11;1741399;81;21647;-63
2021/03/21 10:10:57;;;;;;;5.70;3.98;;;;;;;13.73;27.47;100733.34;1761812;81;21269;-63
2021/03/21 10:13:41;;;;;;;6.08;4.08;;;;;;;13.92;27.58;100721.92;1761755;81;21166;-63
2021/03/21 10:16:20;;;;;;;6.00;4.05;;;;;;;14.07;27.07;100726.48;1761104;81;21095;-63
2021/03/21 10:19:01;;;;;;;7.12;3.85;;;;;;;13.95;27.21;100717.89;1747842;81;21085;-63
2021/03/21 10:21:32;;;;;;;6.35;4.17;;;;;;;14.10;27.74;100710.55;1748768;82;21173;-56
2021/03/21 10:24:14;;;;;;;5.47;4.08;;;;;;;14.30;26.40;100710.10;1748733;81;21129;-56
2021/03/21 10:27:24;;;;;;;4.92;3.60;;;;;;;14.24;25.58;100697.00;1746258;81;21688;-56
2021/03/21 10:30:28;;;;;;;6.17;4.25;;;;;;;14.19;25.15;100696.23;1744476;82;21289;-56
2021/03/21 10:33:04;;;;;;;5.83;3.92;;;;;;;14.42;25.55;100698.35;1747963;80;21136;-64
2021/03/21 10:35:38;;;;;;;7.78;3.98;;;;;;;14.62;24.90;100693.91;1747360;82;21139;-55
2021/03/21 10:38:10;;;;;;;6.42;4.40;;;;;;;14.53;24.52;100689.70;1743223;81;21573;-56
2021/03/21 10:40:44;;;;;;;6.03;4.50;;;;;;;14.86;25.79;100684.52;1732396;82;21662;-64
2021/03/21 10:43:23;;;;;;;8.70;5.45;;;;;;;15.42;25.26;100683.06;1748473;81;21173;-55
2021/03/21 10:45:54;;;;;;;7.78;5.60;;;;;;;15.48;25.05;100673.20;1747664;81;21592;-64
2021/03/21 10:48:31;;;;;;;7.42;5.37;;;;;;;15.36;25.20;100677.07;1748106;81;21760;-56
2021/03/21 10:51:06;;;;;;;9.18;5.95;;;;;;;15.18;24.77;100670.48;1748194;82;21281;-56
2021/03/21 10:53:54;;;;;;;7.08;5.35;;;;;;;15.03;25.52;100665.99;1748120;81;21127;-64
2021/03/21 10:56:26;;;;;;;7.42;5.47;;;;;;;14.84;25.02;100676.20;1746372;81;21124;-64
2021/03/21 10:59:26;;;;;;;8.15;5.92;;;;;;;14.68;26.68;100669.92;1748256;82;21177;-59
2021/03/21 11:02:22;;;;;;;7.00;5.37;;;;;;;14.48;26.01;100658.95;1694950;83;21645;-63
2021/03/21 11:05:05;;;;;;;7.70;5.87;;;;;;;14.73;26.47;100656.61;1662586;84;21186;-64
2021/03/21 11:07:33;;;;;;;7.20;5.37;;;;;;;14.95;26.30;100644.11;1699222;82;21594;-64
2021/03/21 11:10:08;;;;;;;7.10;5.25;;;;;;;15.24;25.35;100636.70;1718640;83;21543;-56
2021/03/21 11:12:39;;;;;;;6.67;4.65;;;;;;;15.16;24.90;100628.98;1723019;81;21135;-64
2021/03/21 11:15:31;;;;;;;6.40;4.62;;;;;;;15.27;24.99;100618.06;1748073;82;21289;-64
2021/03/21 11:18:08;;;;;;;8.50;6.15;;;;;;;15.25;23.78;100619.00;1754343;81;21182;-57
2021/03/21 11:20:37;;;;;;;6.45;5.35;;;;;;;15.17;24.83;100619.22;1752389;81;21142;-56
2021/03/21 11:23:08;;;;;;;5.72;4.25;;;;;;;15.15;25.58;100612.66;1759334;81;21124;-56
2021/03/21 11:25:39;;;;;;;6.50;4.90;;;;;;;15.13;24.17;100606.52;1762120;81;21152;-64
2021/03/21 11:28:11;;;;;;;7.10;5.05;;;;;;;14.96;24.17;100605.66;1756985;81;21168;-64
2021/03/21 11:30:51;;;;;;;6.62;5.50;;;;;;;14.77;24.00;100603.96;1744813;81;21267;-56
2021/03/21 11:33:29;;;;;;;;;;;;;;;14.83;23.57;100601.12;1746131;81;21720;-56
2021/03/21 11:36:22;;;;;;;6.85;4.70;;;;;;;14.89;23.98;100580.23;1761621;81;20561;-64
2021/03/21 11:38:51;;;;;;;6.15;4.42;;;;;;;15.00;24.22;100588.77;1761126;81;21223;-57
2021/03/21 11:41:30;;;;;;;5.70;4.35;;;;;;;15.01;23.56;100576.37;1760581;81;21143;-57
2021/03/21 11:44:30;;;;;;;7.47;5.70;;;;;;;15.36;23.93;100568.33;1761910;81;21119;-64
2021/03/21 11:47:30;;;;;;;;;;;;;;;15.69;23.79;100563.78;1740489;81;21158;-55
2021/03/21 11:50:01;;;;;;;7.78;5.50;;;;;;;15.69;22.76;100553.64;1746249;81;20529;-63
2021/03/21 11:52:30;;;;;;;6.92;5.42;;;;;;;15.47;22.29;100543.66;1744756;81;21651;-56
2021/03/21 11:55:00;;;;;;;8.13;5.95;;;;;;;14.90;21.91;100544.88;1745521;81;21138;-57
2021/03/21 11:57:43;;;;;;;7.97;6.10;;;;;;;14.85;22.71;100548.95;1714153;83;21170;-55
2021/03/21 12:00:31;;;;;;;8.50;5.53;;;;;;;14.53;22.96;100541.39;1759446;81;21568;-56
2021/03/21 12:03:16;;;;;;;7.40;5.80;;;;;;;14.28;23.40;100536.73;1761287;81;21211;-56
2021/03/21 12:06:04;;;;;;;7.83;5.97;;;;;;;14.24;23.42;100529.78;1741171;81;21139;-63
2021/03/21 12:08:39;;;;;;;8.78;6.17;;;;;;;14.39;24.83;100532.48;1750981;81;21158;-64
2021/03/21 12:11:27;;;;;;;7.00;5.58;;;;;;;14.59;24.31;100524.45;1761344;81;21166;-64
2021/03/21 12:13:56;;;;;;;8.23;5.95;;;;;;;14.66;22.83;100522.06;1760944;81;21559;-64
2021/03/21 12:16:42;;;;;;;8.60;6.30;;;;;;;14.75;23.24;100522.32;1743202;81;21267;-63
2021/03/21 12:19:35;;;;;;;6.85;5.08;;;;;;;14.83;22.67;100513.68;1731162;82;21166;-56
2021/03/21 12:22:08;;;;;;;6.97;4.80;;;;;;;14.91;22.50;100507.30;1731180;82;21202;-57
2021/03/21 12:24:36;;;;;;;7.70;5.67;;;;;;;15.12;22.62;100505.37;1750574;81;21146;-56
2021/03/21 12:27:08;;;;;;;6.53;5.00;;;;;;;15.31;22.17;100499.50;1710253;81;21203;-56
2021/03/21 12:29:45;;;;;;;5.83;4.55;;;;;;;15.55;23.48;100499.22;1746732;81;21142;-56
2021/03/21 12:32:41;;;;;;;6.95;5.47;;;;;;;15.64;22.05;100490.12;1760431;81;21114;-65
2021/03/21 12:35:24;;;;;;;7.15;5.55;;;;;;;15.52;21.04;100486.52;1759568;81;21107;-64
2021/03/21 12:37:58;;;;;;;6.25;4.80;;;;;;;15.56;22.38;100478.88;1751140;81;21169;-55
2021/03/21 12:40:37;;;;;;;7.60;5.83;;;;;;;15.52;21.92;100478.08;1758141;81;21146;-63
2021/03/21 12:43:31;;;;;;;8.10;6.15;;;;;;;15.53;23.36;100474.99;1759307;81;21586;-56
2021/03/21 12:46:11;;;;;;;7.58;5.75;;;;;;;15.73;22.42;100468.58;1761583;81;21114;-56